createdAt,value
2023-01-09T00:01:40.488Z,100.00
2023-01-09T00:04:11.456Z,100.00
2023-01-09T00:06:40.340Z,100.00
2023-01-09T00:09:07.902Z,100.00
2023-01-09T00:11:35.522Z,100.00
2023-01-09T00:14:03.574Z,100.00
2023-01-09T00:16:31.549Z,100.00
2023-01-09T00:19:00.449Z,100.00
2023-01-09T00:21:27.971Z,100.00
2023-01-09T00:23:55.963Z,100.00
2023-01-09T00:26:23.840Z,100.00
2023-01-09T00:28:54.204Z,100.00
2023-01-09T00:31:22.638Z,99.54
2023-01-09T00:34:10.510Z,99.18
2023-01-09T00:36:38.059Z,99.70
2023-01-09T00:39:06.556Z,99.79
2023-01-09T00:41:42.719Z,98.29
2023-01-09T00:44:20.487Z,98.51
2023-01-09T00:46:53.424Z,100.00
2023-01-09T00:49:22.078Z,100.00
2023-01-09T00:51:49.837Z,100.00
2023-01-09T00:54:20.043Z,98.07
2023-01-09T00:56:47.844Z,95.94
2023-01-09T00:59:15.565Z,92.41
2023-01-09T01:01:43.269Z,88.46
2023-01-09T01:04:29.354Z,89.28
2023-01-09T01:07:15.614Z,90.23
2023-01-09T01:09:43.295Z,91.64
2023-01-09T01:12:10.786Z,92.45
2023-01-09T01:14:39.531Z,93.59
2023-01-09T01:17:08.027Z,95.57
2023-01-09T01:19:36.432Z,96.57
2023-01-09T01:22:04.798Z,97.86
2023-01-09T01:24:32.496Z,98.93
2023-01-09T01:26:59.995Z,96.49
2023-01-09T01:29:27.896Z,95.98
2023-01-09T01:31:55.462Z,96.09
2023-01-09T01:34:23.619Z,96.90
2023-01-09T01:36:51.149Z,96.62
2023-01-09T01:39:21.672Z,96.22
2023-01-09T01:41:49.133Z,95.61
2023-01-09T01:45:05.895Z,96.10
2023-01-09T01:47:45.015Z,96.19
2023-01-09T01:50:26.782Z,96.23
2023-01-09T01:53:07.004Z,97.04
2023-01-09T01:55:39.238Z,99.03
2023-01-09T01:58:11.664Z,99.82
2023-01-09T02:00:44.690Z,100.00
2023-01-09T02:03:16.068Z,100.00
2023-01-09T02:05:43.902Z,100.00
2023-01-09T02:08:12.293Z,100.00
2023-01-09T02:10:40.933Z,100.00
2023-01-09T02:13:09.808Z,100.00
2023-01-09T02:15:47.614Z,100.00
2023-01-09T02:18:27.375Z,100.00
2023-01-09T02:21:12.639Z,100.00
2023-01-09T02:24:18.362Z,100.00
2023-01-09T02:27:03.763Z,100.00
2023-01-09T02:30:01.800Z,100.00
2023-01-09T02:32:47.038Z,100.00
2023-01-09T02:35:28.526Z,100.00
2023-01-09T02:38:16.074Z,100.00
2023-01-09T02:41:13.803Z,100.00
2023-01-09T02:43:41.870Z,100.00
2023-01-09T02:46:35.845Z,100.00
2023-01-09T02:49:03.364Z,100.00
2023-01-09T02:51:53.030Z,100.00
2023-01-09T02:54:26.149Z,100.00
2023-01-09T02:57:24.684Z,100.00
2023-01-09T03:00:35.048Z,100.00
2023-01-09T03:03:34.010Z,100.00
2023-01-09T03:06:55.125Z,100.00
2023-01-09T03:09:28.261Z,100.00
2023-01-09T03:12:16.538Z,100.00
2023-01-09T03:14:50.896Z,99.69
2023-01-09T03:17:32.210Z,100.00
2023-01-09T03:20:04.711Z,100.00
2023-01-09T03:22:32.345Z,100.00
2023-01-09T03:24:59.838Z,100.00
2023-01-09T03:27:27.757Z,100.00
2023-01-09T03:29:56.635Z,100.00
2023-01-09T03:32:24.176Z,100.00
2023-01-09T03:34:51.770Z,100.00
2023-01-09T03:37:19.372Z,100.00
2023-01-09T03:39:46.904Z,100.00
2023-01-09T03:42:14.536Z,100.00
2023-01-09T03:44:41.995Z,100.00
2023-01-09T03:47:09.473Z,100.00
2023-01-09T03:49:36.956Z,100.00
2023-01-09T03:52:04.709Z,100.00
2023-01-09T03:54:32.177Z,100.00
2023-01-09T03:56:59.714Z,100.00
2023-01-09T03:59:27.329Z,100.00
2023-01-09T04:01:54.942Z,100.00
2023-01-09T04:04:22.541Z,100.00
2023-01-09T04:06:52.833Z,100.00
2023-01-09T04:09:20.367Z,100.00
2023-01-09T04:11:47.847Z,100.00
2023-01-09T04:14:15.554Z,100.00
2023-01-09T04:16:43.590Z,100.00
2023-01-09T04:19:11.096Z,100.00
2023-01-09T04:21:38.547Z,100.00
2023-01-09T04:24:06.646Z,100.00
2023-01-09T04:26:34.098Z,100.00
2023-01-09T04:29:01.707Z,100.00
2023-01-09T04:31:29.219Z,100.00
2023-01-09T04:33:56.710Z,100.00
2023-01-09T04:36:24.236Z,100.00
2023-01-09T04:38:51.761Z,100.00
2023-01-09T04:41:37.812Z,100.00
2023-01-09T04:44:06.379Z,100.00
2023-01-09T04:46:36.888Z,100.00
2023-01-09T04:49:04.418Z,100.00
2023-01-09T04:51:32.042Z,100.00
2023-01-09T04:53:59.564Z,100.00
2023-01-09T04:56:27.082Z,100.00
2023-01-09T04:58:54.683Z,100.00
2023-01-09T05:01:22.493Z,100.00
2023-01-09T05:03:50.249Z,100.00
2023-01-09T05:06:18.332Z,100.00
2023-01-09T05:08:45.993Z,100.00
2023-01-09T05:11:13.471Z,100.00
2023-01-09T05:13:41.195Z,100.00
2023-01-09T05:16:09.286Z,100.00
2023-01-09T05:18:37.117Z,100.00
2023-01-09T05:21:05.182Z,100.00
2023-01-09T05:23:32.651Z,100.00
2023-01-09T05:26:00.653Z,100.00
2023-01-09T05:28:29.340Z,100.00
2023-01-09T05:30:57.017Z,100.00
2023-01-09T05:33:24.963Z,100.00
2023-01-09T05:35:52.479Z,100.00
2023-01-09T05:38:19.924Z,100.00
2023-01-09T05:40:47.397Z,100.00
2023-01-09T05:43:14.873Z,100.00
2023-01-09T05:45:43.089Z,100.00
2023-01-09T05:48:10.600Z,100.00
2023-01-09T05:50:38.107Z,100.00
2023-01-09T05:53:06.729Z,100.00
2023-01-09T05:55:34.418Z,100.00
2023-01-09T05:58:02.525Z,100.00
2023-01-09T06:00:30.174Z,100.00
2023-01-09T06:02:57.934Z,100.00
2023-01-09T06:05:25.838Z,100.00
2023-01-09T06:07:53.300Z,100.00
2023-01-09T06:10:20.957Z,100.00
2023-01-09T06:12:50.860Z,100.00
2023-01-09T06:15:20.686Z,100.00
2023-01-09T06:17:48.717Z,100.00
2023-01-09T06:20:16.332Z,100.00
2023-01-09T06:22:45.309Z,100.00
2023-01-09T06:25:15.134Z,100.00
2023-01-09T06:27:42.697Z,100.00
2023-01-09T06:30:10.999Z,100.00
2023-01-09T06:32:38.456Z,100.00
2023-01-09T06:35:06.840Z,100.00
2023-01-09T06:37:34.463Z,100.00
2023-01-09T06:40:02.007Z,100.00
2023-01-09T06:42:30.630Z,100.00
2023-01-09T06:44:58.191Z,100.00
2023-01-09T06:47:25.648Z,100.00
2023-01-09T06:49:53.223Z,100.00
2023-01-09T06:52:20.742Z,100.00
2023-01-09T06:54:48.199Z,100.00
2023-01-09T06:57:16.335Z,100.00
2023-01-09T06:59:43.921Z,100.00
2023-01-09T07:02:21.949Z,100.00
2023-01-09T07:04:49.577Z,100.00
2023-01-09T07:07:17.114Z,100.00
2023-01-09T07:09:44.661Z,100.00
2023-01-09T07:12:12.942Z,100.00
2023-01-09T07:14:40.577Z,100.00
2023-01-09T07:17:08.120Z,100.00
2023-01-09T07:19:35.638Z,100.00
2023-01-09T07:22:03.113Z,100.00
2023-01-09T07:24:33.216Z,100.00
2023-01-09T07:27:00.812Z,100.00
2023-01-09T07:29:28.294Z,100.00
2023-01-09T07:31:55.776Z,100.00
2023-01-09T07:34:23.315Z,100.00
2023-01-09T07:36:51.268Z,100.00
2023-01-09T07:39:18.812Z,100.00
2023-01-09T07:41:46.853Z,100.00
2023-01-09T07:44:16.461Z,100.00
2023-01-09T07:46:44.004Z,100.00
2023-01-09T07:49:11.531Z,100.00
2023-01-09T07:51:43.030Z,100.00
2023-01-09T07:54:12.663Z,100.00
2023-01-09T07:56:41.257Z,100.00
2023-01-09T07:59:09.240Z,100.00
2023-01-09T08:01:37.108Z,100.00
2023-01-09T08:04:04.823Z,100.00
2023-01-09T08:06:32.636Z,100.00
2023-01-09T08:09:01.740Z,100.00
2023-01-09T08:11:29.225Z,100.00
2023-01-09T08:13:56.732Z,100.00
2023-01-09T08:16:24.413Z,100.00
2023-01-09T08:18:51.939Z,100.00
2023-01-09T08:21:19.352Z,100.00
2023-01-09T08:23:47.879Z,100.00
2023-01-09T08:26:15.340Z,100.00
2023-01-09T08:28:42.869Z,100.00
2023-01-09T08:31:10.341Z,100.00
2023-01-09T08:33:40.421Z,100.00
2023-01-09T08:36:08.616Z,100.00
2023-01-09T08:38:36.166Z,100.00
2023-01-09T08:41:23.629Z,100.00
2023-01-09T08:44:11.267Z,100.00
2023-01-09T08:46:57.469Z,100.00
2023-01-09T08:49:24.906Z,100.00
2023-01-09T08:51:52.341Z,100.00
2023-01-09T08:54:19.875Z,100.00
2023-01-09T08:56:47.398Z,100.00
2023-01-09T08:59:17.866Z,100.00
2023-01-09T09:01:45.470Z,100.00
2023-01-09T09:04:13.045Z,100.00
2023-01-09T09:06:40.801Z,100.00
2023-01-09T09:09:08.382Z,100.00
2023-01-09T09:11:36.664Z,100.00
2023-01-09T09:14:27.369Z,100.00
2023-01-09T09:16:55.078Z,100.00
2023-01-09T09:19:22.739Z,100.00
2023-01-09T09:21:50.398Z,100.00
2023-01-09T09:24:18.079Z,100.00
2023-01-09T09:26:45.581Z,100.00
2023-01-09T09:29:13.197Z,100.00
2023-01-09T09:31:40.791Z,100.00
2023-01-09T09:34:08.974Z,100.00
2023-01-09T09:36:36.624Z,100.00
2023-01-09T09:39:07.199Z,100.00
2023-01-09T09:42:25.400Z,100.00
2023-01-09T09:45:18.367Z,100.00
2023-01-09T09:48:19.176Z,100.00
2023-01-09T09:51:06.868Z,100.00
2023-01-09T09:53:55.081Z,100.00
2023-01-09T09:56:24.480Z,100.00
2023-01-09T09:59:01.854Z,100.00
2023-01-09T10:02:00.355Z,100.00
2023-01-09T10:04:32.587Z,100.00
2023-01-09T10:07:14.059Z,100.00
2023-01-09T10:09:54.430Z,100.00
2023-01-09T10:12:45.168Z,100.00
2023-01-09T10:15:31.469Z,100.00
2023-01-09T10:18:25.494Z,100.00
2023-01-09T10:21:03.556Z,100.00
2023-01-09T10:23:49.119Z,100.00
2023-01-09T10:26:38.199Z,100.00
2023-01-09T10:29:44.916Z,100.00
2023-01-09T10:32:46.099Z,100.00
2023-01-09T10:35:47.965Z,100.00
2023-01-09T10:38:25.832Z,100.00
2023-01-09T10:41:04.027Z,100.00
2023-01-09T10:43:37.862Z,100.00
2023-01-09T10:46:18.432Z,100.00
2023-01-09T10:48:52.797Z,100.00
2023-01-09T10:51:43.522Z,100.00
2023-01-09T10:54:23.348Z,100.00
2023-01-09T10:57:07.294Z,100.00
2023-01-09T10:59:36.436Z,100.00
2023-01-09T11:02:04.435Z,100.00
2023-01-09T11:04:36.521Z,100.00
2023-01-09T11:07:17.210Z,100.00
2023-01-09T11:10:09.809Z,100.00
2023-01-09T11:12:37.730Z,100.00
2023-01-09T11:15:31.311Z,100.00
2023-01-09T11:18:20.179Z,100.00
2023-01-09T11:20:48.281Z,100.00
2023-01-09T11:23:33.672Z,100.00
2023-01-09T11:26:03.135Z,100.00
2023-01-09T11:28:31.443Z,100.00
2023-01-09T11:31:02.416Z,100.00
2023-01-09T11:33:36.556Z,100.00
2023-01-09T11:36:15.192Z,100.00
2023-01-09T11:38:55.933Z,100.00
2023-01-09T11:41:34.471Z,100.00
2023-01-09T11:44:05.153Z,100.00
2023-01-09T11:46:43.986Z,100.00
2023-01-09T11:49:22.883Z,100.00
2023-01-09T11:52:15.190Z,100.00
2023-01-09T11:55:06.813Z,100.00
2023-01-09T11:57:34.714Z,100.00
2023-01-09T12:00:25.840Z,100.00
2023-01-09T12:03:02.200Z,100.00
2023-01-09T12:05:55.440Z,100.00
2023-01-09T12:08:51.644Z,100.00
2023-01-09T12:11:39.786Z,100.00
2023-01-09T12:14:31.491Z,100.00
2023-01-09T12:18:11.165Z,100.00
2023-01-09T12:20:59.915Z,100.00
2023-01-09T12:23:55.026Z,100.00
2023-01-09T12:26:24.020Z,100.00
2023-01-09T12:29:07.340Z,100.00
2023-01-09T12:31:58.922Z,100.00
2023-01-09T12:34:59.205Z,100.00
2023-01-09T12:38:05.271Z,100.00
2023-01-09T12:41:00.176Z,100.00
2023-01-09T12:43:50.920Z,100.00
2023-01-09T12:46:26.821Z,100.00
2023-01-09T12:49:29.801Z,100.00
2023-01-09T12:52:24.436Z,100.00
2023-01-09T12:55:05.012Z,100.00
2023-01-09T12:57:43.071Z,100.00
2023-01-09T13:00:22.860Z,100.00
2023-01-09T13:03:16.176Z,100.00
2023-01-09T13:05:49.557Z,100.00
2023-01-09T13:08:39.071Z,100.00
2023-01-09T13:11:20.448Z,100.00
2023-01-09T13:14:51.334Z,100.00
2023-01-09T13:17:30.740Z,100.00
2023-01-09T13:19:58.355Z,100.00
2023-01-09T13:22:29.286Z,100.00
2023-01-09T13:25:24.984Z,100.00
2023-01-09T13:28:00.795Z,100.00
2023-01-09T13:31:03.784Z,100.00
2023-01-09T13:33:37.153Z,100.00
2023-01-09T13:36:05.882Z,100.00
2023-01-09T13:38:36.380Z,100.00
2023-01-09T13:41:35.615Z,100.00
2023-01-09T13:44:28.801Z,100.00
2023-01-09T13:47:01.207Z,100.00
2023-01-09T13:49:41.917Z,100.00
2023-01-09T13:52:45.607Z,100.00
2023-01-09T13:55:16.003Z,100.00
2023-01-09T13:58:13.682Z,100.00
2023-01-09T14:00:44.196Z,100.00
2023-01-09T14:03:38.751Z,100.00
2023-01-09T14:06:13.259Z,100.00
2023-01-09T14:08:42.086Z,100.00
2023-01-09T14:11:11.410Z,100.00
2023-01-09T14:13:38.958Z,100.00
2023-01-09T14:16:20.720Z,100.00
2023-01-09T14:19:14.470Z,100.00
2023-01-09T14:22:00.039Z,100.00
2023-01-09T14:24:34.493Z,100.00
2023-01-09T14:27:02.642Z,100.00
2023-01-09T14:29:35.843Z,100.00
2023-01-09T14:32:26.496Z,100.00
2023-01-09T14:35:08.194Z,100.00
2023-01-09T14:37:40.698Z,100.00
2023-01-09T14:40:21.885Z,100.00
2023-01-09T14:42:57.130Z,100.00
2023-01-09T14:45:27.779Z,100.00
2023-01-09T14:48:02.803Z,100.00
2023-01-09T14:50:48.865Z,100.00
2023-01-09T14:53:28.465Z,100.00
2023-01-09T14:55:59.656Z,100.00
2023-01-09T14:58:33.663Z,100.00
2023-01-09T15:01:05.123Z,100.00
2023-01-09T15:03:51.562Z,100.00
2023-01-09T15:06:23.148Z,100.00
2023-01-09T15:09:12.747Z,100.00
2023-01-09T15:11:40.917Z,100.00
2023-01-09T15:14:18.749Z,100.00
2023-01-09T15:16:46.358Z,100.00
2023-01-09T15:19:16.674Z,100.00
2023-01-09T15:21:59.098Z,100.00
2023-01-09T15:24:29.930Z,100.00
2023-01-09T15:27:01.963Z,100.00
2023-01-09T15:29:30.248Z,100.00
2023-01-09T15:32:30.419Z,100.00
2023-01-09T15:34:58.745Z,100.00
2023-01-09T15:37:34.521Z,100.00
2023-01-09T15:40:08.103Z,100.00
2023-01-09T15:42:58.059Z,100.00
2023-01-09T15:45:44.798Z,100.00
2023-01-09T15:48:21.846Z,100.00
2023-01-09T15:50:58.706Z,100.00
2023-01-09T15:53:27.998Z,100.00
2023-01-09T15:56:31.057Z,100.00
2023-01-09T15:59:00.582Z,100.00
2023-01-09T16:01:36.052Z,100.00
2023-01-09T16:04:15.814Z,100.00
2023-01-09T16:06:50.501Z,100.00
2023-01-09T16:09:31.240Z,100.00
2023-01-09T16:12:02.222Z,100.00
2023-01-09T16:14:35.323Z,100.00
2023-01-09T16:17:08.008Z,100.00
2023-01-09T16:19:55.418Z,100.00
2023-01-09T16:22:36.255Z,100.00
2023-01-09T16:25:31.678Z,100.00
2023-01-09T16:28:15.273Z,100.00
2023-01-09T16:31:28.652Z,100.00
2023-01-09T16:34:07.011Z,100.00
2023-01-09T16:36:36.322Z,100.00
2023-01-09T16:39:04.498Z,100.00
2023-01-09T16:41:51.144Z,100.00
2023-01-09T16:44:19.470Z,100.00
2023-01-09T16:46:49.827Z,100.00
2023-01-09T16:49:29.449Z,100.00
2023-01-09T16:51:57.233Z,100.00
2023-01-09T16:54:24.703Z,100.00
2023-01-09T16:56:55.219Z,100.00
2023-01-09T16:59:29.603Z,100.00
2023-01-09T17:01:59.731Z,100.00
2023-01-09T17:04:30.300Z,100.00
2023-01-09T17:06:57.746Z,100.00
2023-01-09T17:09:27.882Z,100.00
2023-01-09T17:11:55.327Z,100.00
2023-01-09T17:14:24.620Z,100.00
2023-01-09T17:16:53.553Z,100.00
2023-01-09T17:19:21.703Z,100.00
2023-01-09T17:21:52.465Z,100.00
2023-01-09T17:24:41.085Z,100.00
2023-01-09T17:27:31.006Z,100.00
2023-01-09T17:30:03.005Z,100.00
2023-01-09T17:32:33.674Z,100.00
2023-01-09T17:35:04.646Z,100.00
2023-01-09T17:37:32.260Z,100.00
2023-01-09T17:40:03.922Z,100.00
2023-01-09T17:42:33.127Z,100.00
2023-01-09T17:45:02.179Z,100.00
2023-01-09T17:47:30.197Z,100.00
2023-01-09T17:50:00.770Z,100.00
2023-01-09T17:52:29.137Z,100.00
2023-01-09T17:54:57.089Z,100.00
2023-01-09T17:57:25.219Z,100.00
2023-01-09T17:59:52.689Z,100.00
2023-01-09T18:02:20.770Z,100.00
2023-01-09T18:04:50.127Z,100.00
2023-01-09T18:07:21.692Z,100.00
2023-01-09T18:09:50.239Z,100.00
2023-01-09T18:12:19.755Z,100.00
2023-01-09T18:14:48.726Z,100.00
2023-01-09T18:17:17.063Z,100.00
2023-01-09T18:19:46.421Z,100.00
2023-01-09T18:22:18.957Z,100.00
2023-01-09T18:24:49.698Z,100.00
2023-01-09T18:27:18.484Z,100.00
2023-01-09T18:29:50.389Z,100.00
2023-01-09T18:32:21.218Z,100.00
2023-01-09T18:34:52.089Z,100.00
2023-01-09T18:37:21.621Z,100.00
2023-01-09T18:39:50.635Z,100.00
2023-01-09T18:42:19.552Z,100.00
2023-01-09T18:44:51.825Z,100.00
2023-01-09T18:47:19.351Z,100.00
2023-01-09T18:49:50.837Z,100.00
2023-01-09T18:52:21.416Z,100.00
2023-01-09T18:55:12.031Z,100.00
2023-01-09T18:57:41.011Z,100.00
2023-01-09T19:00:14.395Z,100.00
2023-01-09T19:02:45.607Z,100.00
2023-01-09T19:05:15.624Z,100.00
2023-01-09T19:07:48.292Z,100.00
2023-01-09T19:10:18.789Z,100.00
2023-01-09T19:12:48.842Z,100.00
2023-01-09T19:15:18.403Z,100.00
2023-01-09T19:17:46.912Z,100.00
2023-01-09T19:20:14.800Z,100.00
2023-01-09T19:23:06.457Z,100.00
2023-01-09T19:25:34.785Z,100.00
2023-01-09T19:28:03.877Z,100.00
2023-01-09T19:30:36.900Z,100.00
2023-01-09T19:33:08.088Z,100.00
2023-01-09T19:35:38.501Z,100.00
2023-01-09T19:38:12.511Z,100.00
2023-01-09T19:40:41.641Z,100.00
2023-01-09T19:43:28.231Z,100.00
2023-01-09T19:46:00.858Z,100.00
2023-01-09T19:48:36.936Z,100.00
2023-01-09T19:51:10.325Z,100.00
2023-01-09T19:53:51.559Z,100.00
2023-01-09T19:56:23.333Z,100.00
2023-01-09T19:58:59.314Z,100.00
2023-01-09T20:01:36.085Z,100.00
2023-01-09T20:04:14.541Z,100.00
2023-01-09T20:06:53.999Z,100.00
2023-01-09T20:09:24.237Z,100.00
2023-01-09T20:11:59.495Z,100.00
2023-01-09T20:14:31.263Z,100.00
2023-01-09T20:17:02.395Z,100.00
2023-01-09T20:19:34.065Z,100.00
2023-01-09T20:22:05.484Z,100.00
2023-01-09T20:24:35.668Z,100.00
2023-01-09T20:27:14.033Z,100.00
2023-01-09T20:29:45.741Z,100.00
2023-01-09T20:32:34.258Z,100.00
2023-01-09T20:35:06.183Z,100.00
2023-01-09T20:37:45.557Z,100.00
2023-01-09T20:40:19.979Z,100.00
2023-01-09T20:42:47.526Z,100.00
2023-01-09T20:45:16.253Z,100.00
2023-01-09T20:47:48.174Z,100.00
2023-01-09T20:50:22.583Z,100.00
2023-01-09T20:52:52.027Z,100.00
2023-01-09T20:55:24.664Z,100.00
2023-01-09T20:58:15.409Z,100.00
2023-01-09T21:00:47.490Z,100.00
2023-01-09T21:03:17.028Z,100.00
2023-01-09T21:05:44.784Z,100.00
2023-01-09T21:08:13.543Z,100.00
2023-01-09T21:10:44.018Z,100.00
2023-01-09T21:13:13.909Z,100.00
2023-01-09T21:15:41.566Z,100.00
2023-01-09T21:18:29.207Z,100.00
2023-01-09T21:20:56.857Z,100.00
2023-01-09T21:23:27.118Z,100.00
2023-01-09T21:25:54.595Z,100.00
2023-01-09T21:28:23.735Z,100.00
2023-01-09T21:30:51.235Z,100.00
2023-01-09T21:33:23.062Z,100.00
2023-01-09T21:35:58.167Z,100.00
2023-01-09T21:38:33.643Z,100.00
2023-01-09T21:41:20.012Z,100.00
2023-01-09T21:44:05.992Z,100.00
2023-01-09T21:46:52.198Z,100.00
2023-01-09T21:49:23.374Z,100.00
2023-01-09T21:51:51.866Z,100.00
2023-01-09T21:54:23.476Z,100.00
2023-01-09T21:56:53.035Z,100.00
2023-01-09T21:59:21.026Z,100.00
2023-01-09T22:01:50.230Z,100.00
2023-01-09T22:04:21.117Z,100.00
2023-01-09T22:06:48.659Z,100.00
2023-01-09T22:09:16.681Z,100.00
2023-01-09T22:11:44.864Z,100.00
2023-01-09T22:14:19.155Z,100.00
2023-01-09T22:16:47.533Z,100.00
2023-01-09T22:19:18.157Z,100.00
2023-01-09T22:21:48.461Z,100.00
2023-01-09T22:24:19.306Z,100.00
2023-01-09T22:26:46.863Z,100.00
2023-01-09T22:29:16.363Z,100.00
2023-01-09T22:31:44.148Z,100.00
2023-01-09T22:34:16.774Z,100.00
2023-01-09T22:36:46.107Z,100.00
2023-01-09T22:39:16.546Z,100.00
2023-01-09T22:41:44.417Z,100.00
2023-01-09T22:44:14.561Z,100.00
2023-01-09T22:46:42.062Z,100.00
2023-01-09T22:49:12.608Z,100.00
2023-01-09T22:51:40.251Z,100.00
2023-01-09T22:54:08.321Z,100.00
2023-01-09T22:56:36.267Z,100.00
2023-01-09T22:59:04.188Z,100.00
2023-01-09T23:01:31.763Z,100.00
2023-01-09T23:03:59.284Z,100.00
2023-01-09T23:06:26.792Z,100.00
2023-01-09T23:08:54.832Z,100.00
2023-01-09T23:11:45.698Z,100.00
2023-01-09T23:14:17.736Z,100.00
2023-01-09T23:16:45.450Z,100.00
2023-01-09T23:19:14.683Z,100.00
2023-01-09T23:21:43.528Z,100.00
2023-01-09T23:24:12.587Z,100.00
2023-01-09T23:26:40.246Z,100.00
2023-01-09T23:29:08.336Z,100.00
2023-01-09T23:31:37.807Z,100.00
2023-01-09T23:34:08.156Z,100.00
2023-01-09T23:36:37.577Z,100.00
2023-01-09T23:39:09.016Z,100.00
2023-01-09T23:41:56.066Z,100.00
2023-01-09T23:44:27.139Z,100.00
2023-01-09T23:46:54.730Z,100.00
2023-01-09T23:49:22.624Z,100.00
2023-01-09T23:51:50.240Z,100.00
2023-01-09T23:54:17.702Z,100.00
2023-01-09T23:56:45.282Z,100.00
2023-01-09T23:59:14.699Z,100.00
